Time;durP1;ratioP1;P1;durP2;ratioP2;P2;SDS_P1;SDS_P2;PMS_P1;PMS_P2;Temp;Humidity;BMP_temperature;BMP_pressure;BME280_temperature;BME280_humidity;BME280_pressure;Samples;Min_cycle;Max_cycle;Signal;HPM_P1;HPM_P2
2022/06/29 00:02:01;;;;;;;;;0.00;0.00;;;;;-146.67;27.19;73410.00;5061590;28;61967;-82
2022/06/29 00:04:27;;;;;;;;;0.00;0.00;;;;;-146.67;27.67;73427.97;5062000;28;61875;-83
2022/06/29 00:06:52;;;;;;;;;0.00;0.00;;;;;-146.67;27.29;73408.00;5060834;28;61784;-82
2022/06/29 00:09:18;;;;;;;;;0.00;0.00;;;;;-146.67;27.38;73410.00;5061174;28;61948;-83
2022/06/29 00:11:43;;;;;;;;;0.00;0.00;;;;;-146.67;26.95;73415.97;5061710;28;61704;-82
2022/06/29 00:14:08;;;;;;;;;0.00;0.00;;;;;-146.67;27.33;73396.03;5060033;28;61829;-82
2022/06/29 00:16:34;;;;;;;;;0.00;0.00;;;;;-146.67;27.16;73408.00;5061031;28;61790;-83
2022/06/29 00:18:59;;;;;;;;;0.00;0.00;;;;;-146.67;27.21;73408.00;5061844;28;61738;-83
2022/06/29 00:21:25;;;;;;;;;0.00;0.00;;;;;-146.67;27.44;73404.00;5064675;28;61904;-83
2022/06/29 00:23:50;;;;;;;;;0.00;0.00;;;;;-146.67;27.12;73410.00;5062664;28;61893;-82
2022/06/29 00:26:16;;;;;;;;;0.00;0.00;;;;;-146.67;27.31;73427.97;5064234;28;62722;-83
2022/06/29 00:28:41;;;;;;;;;0.00;0.00;;;;;-146.67;27.67;73425.97;5063253;28;62243;-83
2022/06/29 00:31:06;;;;;;;;;0.00;0.00;;;;;-146.67;27.56;73415.97;5064906;28;62078;-83
2022/06/29 00:33:32;;;;;;;;;0.00;0.00;;;;;-146.67;27.72;73421.97;5065039;28;61933;-83
2022/06/29 00:35:57;;;;;;;;;0.00;0.00;;;;;-146.67;27.52;73421.97;5062418;28;63437;-82
2022/06/29 00:38:23;;;;;;;;;0.00;0.00;;;;;-146.67;27.88;73429.97;5064212;28;61790;-82
2022/06/29 00:40:48;;;;;;;;;0.00;0.00;;;;;-146.67;27.25;73429.97;5064625;28;62654;-82
2022/06/29 00:43:13;;;;;;;;;0.00;0.00;;;;;-146.67;27.59;73425.97;5064818;28;62311;-82
2022/06/29 00:45:39;;;;;;;;;0.00;0.00;;;;;-146.67;27.74;73431.94;5064000;28;61932;-82
2022/06/29 00:48:05;;;;;;;;;0.00;0.00;;;;;-146.67;27.57;73425.97;5062690;28;62265;-82
2022/06/29 00:50:33;;;;;;;;;0.00;0.00;;;;;-146.67;27.77;73417.97;5063994;28;61905;-82
2022/06/29 00:53:03;;;;;;;;;0.00;0.00;;;;;-146.67;27.42;73423.97;5063064;28;61771;-82
2022/06/29 00:55:31;;;;;;;;;0.00;0.00;;;;;-146.67;27.76;73423.97;5063393;28;62041;-82
2022/06/29 00:58:00;;;;;;;;;0.00;0.00;;;;;-146.67;27.90;73425.97;5064359;28;61799;-82
2022/06/29 01:00:27;;;;;;;;;0.00;0.00;;;;;-146.67;28.04;73429.97;5063948;28;62013;-83
2022/06/29 01:02:52;;;;;;;;;0.00;0.00;;;;;-146.67;28.20;73415.97;5064734;28;61964;-82
2022/06/29 01:05:18;;;;;;;;;0.00;0.00;;;;;-146.67;28.02;73406.00;5062966;28;63078;-82
2022/06/29 01:07:44;;;;;;;;;0.00;0.00;;;;;-146.67;27.71;73402.00;5063903;28;61766;-82
2022/06/29 01:10:09;;;;;;;;;0.00;0.00;;;;;-146.67;27.90;73392.03;5062627;28;61917;-83
2022/06/29 01:12:35;;;;;;;;;0.00;0.00;;;;;-146.67;27.74;73386.03;5064337;28;62125;-83
2022/06/29 01:15:01;;;;;;;;;0.00;0.00;;;;;-146.67;27.53;73384.06;5063657;28;61859;-82
2022/06/29 01:17:26;;;;;;;;;0.00;0.00;;;;;-146.67;27.64;73388.03;5064025;28;61802;-82
2022/06/29 01:19:52;;;;;;;;;0.00;0.00;;;;;-146.67;27.69;73392.03;5063617;28;61951;-82
2022/06/29 01:22:21;;;;;;;;;0.00;0.00;;;;;-146.67;27.80;73380.06;5064107;28;62124;-82
2022/06/29 01:24:48;;;;;;;;;0.00;0.00;;;;;-146.67;27.82;73386.03;5062495;28;61932;-82
2022/06/29 01:27:16;;;;;;;;;0.00;0.00;;;;;-146.67;28.06;73390.03;5063970;28;62173;-82
2022/06/29 01:29:41;;;;;;;;;0.00;0.00;;;;;-146.67;27.76;73386.03;5064026;28;61874;-82
2022/06/29 01:32:08;;;;;;;;;0.00;0.00;;;;;-146.67;27.83;73382.06;5063990;28;62071;-82
2022/06/29 01:34:34;;;;;;;;;0.00;0.00;;;;;-146.67;27.90;73388.03;5078307;28;65037;-82
2022/06/29 01:37:00;;;;;;;;;0.00;0.00;;;;;-146.67;27.99;73392.03;5062514;28;61773;-83
2022/06/29 01:39:27;;;;;;;;;0.00;0.00;;;;;-146.67;28.10;73408.00;5063387;28;61839;-82
2022/06/29 01:41:52;;;;;;;;;0.00;0.00;;;;;-146.67;27.92;73415.97;5062443;28;62461;-82
2022/06/29 01:44:19;;;;;;;;;0.00;0.00;;;;;-146.67;27.96;73421.97;5063408;28;62918;-83
2022/06/29 01:46:44;;;;;;;;;0.00;0.00;;;;;-146.67;27.72;73441.94;5063850;28;62245;-82
2022/06/29 01:49:10;;;;;;;;;0.00;0.00;;;;;-146.67;28.26;73461.88;5061775;28;61746;-82
2022/06/29 01:51:35;;;;;;;;;0.00;0.00;;;;;-146.67;28.28;73467.88;5063760;28;61984;-83
2022/06/29 01:54:01;;;;;;;;;0.00;0.00;;;;;-146.67;28.34;73471.88;5062034;28;62263;-82
2022/06/29 01:56:27;;;;;;;;;0.00;0.00;;;;;-146.67;28.64;73477.84;5063389;28;62046;-83
2022/06/29 01:58:52;;;;;;;;;0.00;0.00;;;;;-146.67;28.45;73493.81;5063261;28;62015;-82
2022/06/29 02:01:18;;;;;;;;;0.00;0.00;;;;;-146.67;28.53;73495.81;5063787;28;61713;-83
2022/06/29 02:03:44;;;;;;;;;0.00;0.00;;;;;-146.67;28.46;73495.81;5060779;28;63792;-82
2022/06/29 02:06:10;;;;;;;;;0.00;0.00;;;;;-146.67;28.52;73473.88;5063566;28;61852;-82
2022/06/29 02:08:36;;;;;;;;;0.00;0.00;;;;;-146.67;28.37;73461.88;5061463;28;61926;-82
2022/06/29 02:11:01;;;;;;;;;0.00;0.00;;;;;-146.67;28.33;73451.91;5063217;28;62082;-82
2022/06/29 02:13:27;;;;;;;;;0.00;0.00;;;;;-146.67;28.26;73445.91;5062593;28;61663;-83
2022/06/29 02:15:53;;;;;;;;;0.00;0.00;;;;;-146.67;28.47;73437.94;5063272;28;61908;-83
2022/06/29 02:18:19;;;;;;;;;0.00;0.00;;;;;-146.67;28.38;73437.94;5061539;28;61929;-82
2022/06/29 02:20:44;;;;;;;;;0.00;0.00;;;;;-146.67;28.28;73445.91;5063199;28;62175;-82
2022/06/29 02:23:09;;;;;;;;;0.00;0.00;;;;;-146.67;28.67;73451.91;5060594;28;63544;-82
2022/06/29 02:25:35;;;;;;;;;0.00;0.00;;;;;-146.67;28.78;73447.91;5062485;28;61710;-82
2022/06/29 02:28:01;;;;;;;;;0.00;0.00;;;;;-146.67;28.67;73477.84;5063139;28;61782;-82
2022/06/29 02:35:56;;;;;;;;;0.00;0.00;;;;;-146.67;29.04;73495.81;5063013;28;61759;-82
2022/06/29 02:38:21;;;;;;;;;0.00;0.00;;;;;-146.67;28.85;73493.81;5062957;28;61735;-83
2022/06/29 02:40:47;;;;;;;;;0.00;0.00;;;;;-146.67;29.13;73495.81;5062572;28;61698;-82
2022/06/29 02:43:12;;;;;;;;;0.00;0.00;;;;;-146.67;28.84;73491.84;5061703;28;61743;-82
2022/06/29 02:45:38;;;;;;;;;0.00;0.00;;;;;-146.67;28.85;73479.84;5061331;28;61969;-83
2022/06/29 02:48:03;;;;;;;;;0.00;0.00;;;;;-146.67;28.78;73497.81;5061036;28;61903;-83
2022/06/29 02:50:29;;;;;;;;;0.00;0.00;;;;;-146.67;29.01;73497.81;5061662;28;61765;-83
2022/06/29 02:52:54;;;;;;;;;0.00;0.00;;;;;-146.67;29.02;73509.78;5061282;28;61801;-82
2022/06/29 02:55:20;;;;;;;;;0.00;0.00;;;;;-146.67;28.98;73505.81;5062408;28;61802;-82
2022/06/29 02:57:45;;;;;;;;;0.00;0.00;;;;;-146.67;28.90;73499.81;5062266;28;61930;-82
2022/06/29 03:00:13;;;;;;;;;0.00;0.00;;;;;-146.67;28.92;73491.84;5062918;28;61828;-83
2022/06/29 03:02:38;;;;;;;;;0.00;0.00;;;;;-146.67;29.15;73501.81;5061475;28;62194;-82
2022/06/29 03:05:04;;;;;;;;;0.00;0.00;;;;;-146.67;28.90;73505.81;5061262;28;62260;-83
2022/06/29 03:07:30;;;;;;;;;0.00;0.00;;;;;-146.67;29.10;73503.81;5062110;28;61920;-82
2022/06/29 03:09:55;;;;;;;;;0.00;0.00;;;;;-146.67;29.20;73519.78;5060934;28;62183;-82
2022/06/29 03:12:21;;;;;;;;;0.00;0.00;;;;;-146.67;29.18;73517.78;5061813;28;61968;-83
2022/06/29 03:14:46;;;;;;;;;0.00;0.00;;;;;-146.67;28.95;73517.78;5062298;28;62010;-82
2022/06/29 03:17:11;;;;;;;;;0.00;0.00;;;;;-146.67;28.98;73517.78;5062606;28;61892;-82
2022/06/29 03:19:37;;;;;;;;;0.00;0.00;;;;;-146.67;28.81;73531.75;5060647;28;61900;-83
2022/06/29 03:22:03;;;;;;;;;0.00;0.00;;;;;-146.67;29.05;73547.72;5061726;28;61859;-81
2022/06/29 03:24:28;;;;;;;;;0.00;0.00;;;;;-146.67;28.86;73557.69;5060216;28;62130;-82
2022/06/29 03:26:54;;;;;;;;;0.00;0.00;;;;;-146.67;29.22;73561.69;5062919;28;62019;-82
2022/06/29 03:29:19;;;;;;;;;0.00;0.00;;;;;-146.67;29.49;73571.66;5062016;28;61887;-82
2022/06/29 03:31:44;;;;;;;;;0.00;0.00;;;;;-146.67;29.47;73577.66;5061341;28;62304;-82
2022/06/29 03:34:10;;;;;;;;;0.00;0.00;;;;;-146.67;29.26;73575.66;5062403;28;62098;-82
2022/06/29 03:36:35;;;;;;;;;0.00;0.00;;;;;-146.67;29.32;73561.69;5062334;28;61814;-83
2022/06/29 03:39:01;;;;;;;;;0.00;0.00;;;;;-146.67;29.09;73555.69;5061524;28;62088;-82
2022/06/29 03:41:26;;;;;;;;;0.00;0.00;;;;;-146.67;29.06;73547.72;5060392;28;63768;-83
2022/06/29 03:43:52;;;;;;;;;0.00;0.00;;;;;-146.67;29.00;73539.72;5061198;28;62293;-82
2022/06/29 03:46:17;;;;;;;;;0.00;0.00;;;;;-146.67;29.03;73557.69;5062229;28;61888;-83
2022/06/29 03:48:43;;;;;;;;;0.00;0.00;;;;;-146.67;29.25;73571.66;5062244;28;61901;-82
2022/06/29 03:51:08;;;;;;;;;0.00;0.00;;;;;-146.67;29.07;73587.63;5059807;28;65023;-82
2022/06/29 03:53:36;;;;;;;;;0.00;0.00;;;;;-146.67;29.49;73591.63;5061491;28;61928;-82
2022/06/29 03:56:06;;;;;;;;;0.00;0.00;;;;;-146.67;29.37;73603.59;5065100;28;61770;-83
2022/06/29 03:58:34;;;;;;;;;0.00;0.00;;;;;-146.67;29.56;73599.63;5065224;28;62222;-82
2022/06/29 04:00:59;;;;;;;;;0.00;0.00;;;;;-146.67;29.55;73607.59;5063162;28;62232;-83
2022/06/29 04:03:25;;;;;;;;;0.00;0.00;;;;;-146.67;29.44;73609.59;5065160;28;61904;-83
2022/06/29 04:05:50;;;;;;;;;0.00;0.00;;;;;-146.67;29.69;73611.59;5065289;28;61801;-81
2022/06/29 04:08:17;;;;;;;;;0.00;0.00;;;;;-146.67;29.32;73599.63;5065441;28;62206;-82
2022/06/29 04:10:42;;;;;;;;;0.00;0.00;;;;;-146.67;29.31;73595.63;5079666;28;65407;-82
2022/06/29 04:13:08;;;;;;;;;0.00;0.00;;;;;-146.67;29.67;73591.63;5064695;28;62003;-82
2022/06/29 04:15:34;;;;;;;;;0.00;0.00;;;;;-146.67;29.67;73605.59;5065357;28;62021;-83
2022/06/29 04:18:00;;;;;;;;;0.00;0.00;;;;;-146.67;29.68;73601.59;5063803;28;62258;-82
2022/06/29 04:23:09;;;;;;;;;0.00;0.00;;;;;-146.67;29.67;73581.66;5064170;28;61960;-82
2022/06/29 04:25:34;;;;;;;;;0.00;0.00;;;;;-146.67;29.35;73577.66;5063077;28;61892;-82
2022/06/29 04:28:00;;;;;;;;;0.00;0.00;;;;;-146.67;29.51;73577.66;5063171;28;61938;-83
2022/06/29 04:30:25;;;;;;;;;0.00;0.00;;;;;-146.67;29.18;73573.66;5063297;28;64932;-81
2022/06/29 04:32:51;;;;;;;;;0.00;0.00;;;;;-146.67;29.56;73571.66;5066863;28;61860;-81
2022/06/29 04:35:16;;;;;;;;;0.00;0.00;;;;;-146.67;29.67;73573.66;5065323;28;62066;-82
2022/06/29 04:37:42;;;;;;;;;0.00;0.00;;;;;-146.67;29.17;73571.66;5064737;28;61839;-82
2022/06/29 04:40:08;;;;;;;;;0.00;0.00;;;;;-146.67;29.21;73563.69;5063918;28;62560;-82
2022/06/29 04:42:33;;;;;;;;;0.00;0.00;;;;;-146.67;29.32;73565.69;5064385;28;61764;-82
2022/06/29 04:44:59;;;;;;;;;0.00;0.00;;;;;-146.67;28.93;73567.69;5064677;28;62377;-82
2022/06/29 04:47:24;;;;;;;;;0.00;0.00;;;;;-146.67;29.05;73571.66;5065062;28;61744;-83
2022/06/29 04:49:50;;;;;;;;;0.00;0.00;;;;;-146.67;29.25;73577.66;5063766;28;62585;-83
2022/06/29 04:52:15;;;;;;;;;0.00;0.00;;;;;-146.67;29.10;73587.63;5064393;28;61780;-82
2022/06/29 04:54:40;;;;;;;;;0.00;0.00;;;;;-146.67;28.92;73597.63;5063577;28;61998;-84
2022/06/29 04:57:09;;;;;;;;;0.00;0.00;;;;;-146.67;29.23;73605.59;5064062;28;61783;-82
2022/06/29 04:59:35;;;;;;;;;0.00;0.00;;;;;-146.67;29.66;73607.59;5057455;28;63655;-82
2022/06/29 05:02:00;;;;;;;;;0.00;0.00;;;;;-146.67;29.24;73613.59;5042504;28;61759;-81
2022/06/29 05:04:26;;;;;;;;;0.00;0.00;;;;;-146.67;29.25;73619.56;5044226;28;61717;-82
2022/06/29 05:06:51;;;;;;;;;0.00;0.00;;;;;-146.67;29.42;73621.56;5044090;28;61875;-82
2022/06/29 05:09:17;;;;;;;;;0.00;0.00;;;;;-146.67;29.38;73611.59;5042621;28;62581;-82
2022/06/29 05:11:42;;;;;;;;;0.00;0.00;;;;;-146.67;29.25;73607.59;5042070;28;61881;-82
2022/06/29 05:14:11;;;;;;;;;0.00;0.00;;;;;-146.67;29.41;73597.63;5042302;28;61981;-82
2022/06/29 05:16:38;;;;;;;;;0.00;0.00;;;;;-146.67;29.22;73583.66;5044348;28;62104;-81
2022/06/29 05:19:04;;;;;;;;;0.00;0.00;;;;;-146.67;29.27;73575.66;5042895;28;62086;-82
2022/06/29 05:21:30;;;;;;;;;0.00;0.00;;;;;-146.67;29.26;73567.69;5043929;28;61841;-84
2022/06/29 05:23:56;;;;;;;;;0.00;0.00;;;;;-146.67;28.93;73557.69;5042999;28;62419;-81
2022/06/29 05:26:22;;;;;;;;;0.00;0.00;;;;;-146.67;28.68;73565.69;5043279;28;62163;-80
2022/06/29 05:28:48;;;;;;;;;0.00;0.00;;;;;-146.67;28.38;73557.69;5043298;28;62031;-81
2022/06/29 05:31:13;;;;;;;;;0.00;0.00;;;;;-146.67;28.51;73523.75;5043290;28;61795;-83
2022/06/29 05:33:39;;;;;;;;;0.00;0.00;;;;;-146.67;28.26;73499.81;5050354;28;62138;-78
2022/06/29 05:36:07;;;;;;;;;0.00;0.00;;;;;-146.67;28.21;73465.88;5084133;27;61768;-79
2022/06/29 05:38:33;;;;;;;;;0.00;0.00;;;;;-146.67;27.53;73410.00;5072663;27;62917;-84
2022/06/29 05:41:02;;;;;;;;;0.00;0.00;;;;;-146.67;27.13;73340.13;5073338;28;61734;-84
2022/06/29 05:43:30;;;;;;;;;0.00;0.00;;;;;-146.67;26.37;73262.31;5079924;28;61877;-84
2022/06/29 05:45:56;;;;;;;;;0.00;0.00;;;;;-146.67;26.11;73180.47;5075549;27;61824;-88
2022/06/29 05:48:21;;;;;;;;;0.00;0.00;;;;;-146.67;25.58;73116.59;5069134;27;61993;-86
2022/06/29 05:50:47;;;;;;;;;0.00;0.00;;;;;-146.67;25.18;73048.75;5073391;27;62106;-88
2022/06/29 05:53:14;;;;;;;;;0.00;0.00;;;;;-146.67;24.96;73006.84;5071881;28;61903;-87
2022/06/29 05:55:39;;;;;;;;;0.00;0.00;;;;;-146.67;24.67;72980.91;5070119;28;61867;-88
2022/06/29 05:58:05;;;;;;;;;0.00;0.00;;;;;-146.67;25.14;73006.84;5065937;27;61953;-85
2022/06/29 06:00:30;;;;;;;;;0.00;0.00;;;;;-146.67;24.76;73044.75;5068399;28;61777;-80
2022/06/29 06:02:56;;;;;;;;;0.00;0.00;;;;;-146.67;25.05;73088.66;5073966;28;61914;-79
2022/06/29 06:05:21;;;;;;;;;0.00;0.00;;;;;-146.67;25.39;73116.59;5073345;28;62036;-79
2022/06/29 06:07:47;;;;;;;;;0.00;0.00;;;;;-146.67;25.33;73136.56;5068224;27;61913;-79
2022/06/29 06:10:12;;;;;;;;;0.00;0.00;;;;;-146.67;25.29;73120.59;5072917;27;61778;-79
2022/06/29 06:12:38;;;;;;;;;0.00;0.00;;;;;-146.67;25.14;73148.53;5072919;28;61816;-79
2022/06/29 06:15:04;;;;;;;;;0.00;0.00;;;;;-146.67;25.42;73186.47;5072266;27;61836;-79
2022/06/29 06:17:29;;;;;;;;;0.00;0.00;;;;;-146.67;25.42;73200.44;5072806;28;61830;-79
2022/06/29 06:19:55;;;;;;;;;0.00;0.00;;;;;-146.67;25.82;73178.47;5071513;27;61836;-80
2022/06/29 06:22:21;;;;;;;;;0.00;0.00;;;;;-146.67;25.11;73186.47;5070180;28;62093;-79
2022/06/29 06:24:47;;;;;;;;;0.00;0.00;;;;;-146.67;25.12;73188.47;5073170;28;62073;-80
2022/06/29 06:27:13;;;;;;;;;0.00;0.00;;;;;-146.67;25.39;73176.47;5072703;28;61930;-79
2022/06/29 06:29:39;;;;;;;;;0.00;0.00;;;;;-146.67;24.51;73034.78;5069111;28;62130;-84
2022/06/29 06:32:05;;;;;;;;;0.00;0.00;;;;;-146.67;24.29;72982.91;5076335;28;62177;-78
2022/06/29 06:34:31;;;;;;;;;0.00;0.00;;;;;-146.67;24.55;72994.88;5070254;28;62113;-79
2022/06/29 06:36:58;;;;;;;;;0.00;0.00;;;;;-146.67;24.67;73020.81;5066922;27;61767;-83
2022/06/29 06:39:25;;;;;;;;;0.00;0.00;;;;;-146.67;24.95;73082.69;5068965;27;62311;-79
2022/06/29 06:41:50;;;;;;;;;0.00;0.00;;;;;-146.67;25.19;73090.66;5065161;28;61873;-80
2022/06/29 06:44:16;;;;;;;;;0.00;0.00;;;;;-146.67;25.32;73102.63;5070159;28;61943;-82
2022/06/29 06:46:41;;;;;;;;;0.00;0.00;;;;;-146.67;25.10;73106.63;5069999;27;62087;-80
2022/06/29 06:49:08;;;;;;;;;0.00;0.00;;;;;-146.67;24.59;73106.63;5070933;27;62114;-80
2022/06/29 06:51:33;;;;;;;;;0.00;0.00;;;;;-146.67;24.92;73110.63;5082699;27;62314;-86
2022/06/29 06:53:59;;;;;;;;;0.00;0.00;;;;;-146.67;24.80;73112.63;5091133;27;61830;-81
2022/06/29 06:56:25;;;;;;;;;0.00;0.00;;;;;-146.67;24.92;73126.59;5070664;27;61724;-81
2022/06/29 06:58:51;;;;;;;;;0.00;0.00;;;;;-146.67;24.77;73120.59;5054775;28;61927;-80
2022/06/29 07:01:16;;;;;;;;;0.00;0.00;;;;;-146.67;24.88;73120.59;5061252;28;61750;-80
2022/06/29 07:03:42;;;;;;;;;0.00;0.00;;;;;-146.67;25.29;73112.63;5061466;28;61839;-80
2022/06/29 07:06:09;;;;;;;;;0.00;0.00;;;;;-146.67;25.13;73130.59;5062680;28;61848;-80
2022/06/29 07:08:37;;;;;;;;;0.00;0.00;;;;;-146.67;24.82;73124.59;5059525;28;61830;-80
2022/06/29 07:11:04;;;;;;;;;0.00;0.00;;;;;-146.67;25.11;73122.59;5062015;28;61886;-80
2022/06/29 07:13:33;;;;;;;;;0.00;0.00;;;;;-146.67;24.98;73134.56;5062299;28;62118;-80
2022/06/29 07:15:59;;;;;;;;;0.00;0.00;;;;;-146.67;25.07;73106.63;5059626;28;61727;-83
2022/06/29 07:18:25;;;;;;;;;0.00;0.00;;;;;-146.67;25.10;73104.63;5056588;28;62276;-83
2022/06/29 07:20:51;;;;;;;;;0.00;0.00;;;;;-146.67;24.54;73092.66;5042449;28;62279;-82
2022/06/29 07:23:17;;;;;;;;;0.00;0.00;;;;;-146.67;24.47;73102.63;5058345;28;61884;-83
2022/06/29 07:25:42;;;;;;;;;0.00;0.00;;;;;-146.67;24.82;73112.63;5059528;28;61978;-82
2022/06/29 07:28:08;;;;;;;;;0.00;0.00;;;;;-146.67;24.79;73120.59;5062675;28;62066;-84
2022/06/29 07:30:34;;;;;;;;;0.00;0.00;;;;;-146.67;24.93;73110.63;5064362;28;62065;-82
2022/06/29 07:32:59;;;;;;;;;0.00;0.00;;;;;-146.67;24.80;73144.56;5065667;28;61758;-83
2022/06/29 07:35:26;;;;;;;;;0.00;0.00;;;;;-146.67;24.73;73174.50;5053150;28;61707;-82
2022/06/29 07:37:52;;;;;;;;;0.00;0.00;;;;;-146.67;25.14;73172.50;5044587;28;61906;-80
2022/06/29 07:40:18;;;;;;;;;0.00;0.00;;;;;-146.67;24.79;73162.50;5043734;28;61947;-80
2022/06/29 07:42:43;;;;;;;;;0.00;0.00;;;;;-146.67;25.00;73144.56;5045300;28;62212;-80
2022/06/29 07:45:09;;;;;;;;;0.00;0.00;;;;;-146.67;25.10;73140.56;5043250;28;63678;-80
2022/06/29 07:47:35;;;;;;;;;0.00;0.00;;;;;-146.67;25.05;73134.56;5044901;28;61791;-80
2022/06/29 07:50:01;;;;;;;;;0.00;0.00;;;;;-146.67;25.08;73126.59;5045195;28;62160;-80
2022/06/29 07:52:26;;;;;;;;;0.00;0.00;;;;;-146.67;25.02;73128.59;5060276;28;62295;-79
2022/06/29 07:54:52;;;;;;;;;0.00;0.00;;;;;-146.67;25.05;73154.53;5063838;28;61945;-83
2022/06/29 07:57:18;;;;;;;;;0.00;0.00;;;;;-146.67;24.94;73132.56;5061845;28;62112;-79
2022/06/29 07:59:46;;;;;;;;;0.00;0.00;;;;;-146.67;24.98;73152.53;5062170;28;62011;-79
2022/06/29 08:02:11;;;;;;;;;0.00;0.00;;;;;-146.67;25.44;73158.53;5063216;28;62567;-79
2022/06/29 08:04:37;;;;;;;;;0.00;0.00;;;;;-146.67;25.38;73146.53;5063492;28;61841;-79
2022/06/29 08:07:03;;;;;;;;;0.00;0.00;;;;;-146.67;24.98;73124.59;5063531;28;61769;-79
2022/06/29 08:09:28;;;;;;;;;0.00;0.00;;;;;-146.67;24.79;73132.56;5064530;28;61946;-79
2022/06/29 08:11:54;;;;;;;;;0.00;0.00;;;;;-146.67;25.05;73154.53;5064127;28;62065;-79
2022/06/29 08:14:19;;;;;;;;;0.00;0.00;;;;;-146.67;25.37;73168.50;5062067;28;64684;-79
2022/06/29 08:16:45;;;;;;;;;0.00;0.00;;;;;-146.67;25.02;73158.53;5061637;28;61975;-79
2022/06/29 08:19:10;;;;;;;;;0.00;0.00;;;;;-146.67;25.46;73146.53;5059788;28;62048;-80
2022/06/29 08:21:36;;;;;;;;;0.00;0.00;;;;;-146.67;25.37;73140.56;5063028;28;62119;-79
2022/06/29 08:24:02;;;;;;;;;0.00;0.00;;;;;-146.67;25.31;73150.53;5060304;28;63798;-79
2022/06/29 08:26:27;;;;;;;;;0.00;0.00;;;;;-146.67;25.22;73122.59;5044807;28;62091;-79
2022/06/29 08:28:52;;;;;;;;;0.00;0.00;;;;;-146.67;25.45;73108.63;5063254;28;62448;-79
2022/06/29 08:31:18;;;;;;;;;0.00;0.00;;;;;-146.67;25.29;73092.66;5063474;28;62007;-79
2022/06/29 08:33:45;;;;;;;;;0.00;0.00;;;;;-146.67;25.01;73082.69;5063410;28;62024;-79
2022/06/29 08:36:11;;;;;;;;;0.00;0.00;;;;;-146.67;25.37;73082.69;5060173;28;61817;-79
2022/06/29 08:38:36;;;;;;;;;0.00;0.00;;;;;-146.67;25.42;73080.69;5060964;28;62047;-79
2022/06/29 08:41:02;;;;;;;;;0.00;0.00;;;;;-146.67;25.17;73068.72;5065385;27;62046;-79
2022/06/29 08:43:27;;;;;;;;;0.00;0.00;;;;;-146.67;25.49;73062.72;5070298;28;61802;-79
2022/06/29 08:45:53;;;;;;;;;0.00;0.00;;;;;-146.67;25.53;73058.72;5069912;27;61895;-79
2022/06/29 08:48:19;;;;;;;;;0.00;0.00;;;;;-146.67;25.42;73050.75;5065615;28;61781;-78
2022/06/29 08:50:55;;;;;;;;;0.00;0.00;;;;;-146.67;24.91;73050.75;5061658;28;62257;-82
2022/06/29 08:53:22;;;;;;;;;0.00;0.00;;;;;-146.67;25.22;73052.75;5055582;28;64301;-80
2022/06/29 08:55:51;;;;;;;;;0.00;0.00;;;;;-146.67;24.82;73048.75;5062826;28;62349;-80
2022/06/29 08:58:21;;;;;;;;;0.00;0.00;;;;;-146.67;25.11;73044.75;5061104;28;62132;-77
2022/06/29 09:00:51;;;;;;;;;0.00;0.00;;;;;-146.67;25.39;73044.75;5062486;28;61907;-77
2022/06/29 09:03:18;;;;;;;;;0.00;0.00;;;;;-146.67;25.21;73028.78;5060549;28;64592;-77
2022/06/29 09:05:56;;;;;;;;;0.00;0.00;;;;;-146.67;24.96;73020.81;5062429;28;61856;-79
2022/06/29 09:08:22;;;;;;;;;0.00;0.00;;;;;-146.67;24.77;73016.81;5070658;28;61870;-79
2022/06/29 09:10:48;;;;;;;;;0.00;0.00;;;;;-146.67;24.37;73014.81;5063489;28;62009;-79
2022/06/29 09:13:24;;;;;;;;;0.00;0.00;;;;;-146.67;24.82;73008.84;5062837;28;62126;-79
2022/06/29 09:15:58;;;;;;;;;0.00;0.00;;;;;-146.67;24.19;73012.84;5061284;28;61950;-80
2022/06/29 09:18:23;;;;;;;;;0.00;0.00;;;;;-146.67;24.17;73030.78;5061552;28;61829;-79
2022/06/29 09:20:56;;;;;;;;;0.00;0.00;;;;;-146.67;24.38;73030.78;5062035;28;61800;-79
2022/06/29 09:23:24;;;;;;;;;0.00;0.00;;;;;-146.67;24.36;73030.78;5062490;28;61904;-79
2022/06/29 09:25:50;;;;;;;;;0.00;0.00;;;;;-146.67;24.22;73048.75;5072244;28;62296;-78
2022/06/29 09:28:31;;;;;;;;;0.00;0.00;;;;;-146.67;24.55;73064.72;5074657;27;61984;-79
2022/06/29 09:30:58;;;;;;;;;0.00;0.00;;;;;-146.67;24.47;73054.75;5059978;28;63003;-79
2022/06/29 09:33:29;;;;;;;;;0.00;0.00;;;;;-146.67;24.14;73060.72;5060502;28;62125;-80
2022/06/29 09:36:17;;;;;;;;;0.00;0.00;;;;;-146.67;24.56;73058.72;5062350;28;61944;-79
2022/06/29 09:38:43;;;;;;;;;0.00;0.00;;;;;-146.67;24.34;73058.72;5060814;28;62027;-79
2022/06/29 09:41:10;;;;;;;;;0.00;0.00;;;;;-146.67;24.52;73062.72;5062465;28;61837;-79
2022/06/29 09:43:41;;;;;;;;;0.00;0.00;;;;;-146.67;24.22;73076.69;5060549;28;63909;-80
2022/06/29 09:46:11;;;;;;;;;0.00;0.00;;;;;-146.67;24.00;73068.72;5062605;28;62118;-80
2022/06/29 09:48:38;;;;;;;;;0.00;0.00;;;;;-146.67;24.29;73050.75;5061608;28;62001;-78
2022/06/29 09:51:30;;;;;;;;;0.00;0.00;;;;;-146.67;24.64;73052.75;5062406;28;62123;-78
2022/06/29 09:54:07;;;;;;;;;0.00;0.00;;;;;-146.67;24.03;73034.78;5060437;28;63108;-82
2022/06/29 09:56:33;;;;;;;;;0.00;0.00;;;;;-146.67;24.56;73048.75;5064619;28;61974;-79
2022/06/29 09:59:01;;;;;;;;;0.00;0.00;;;;;-146.67;24.31;73036.78;5061580;28;62343;-78
2022/06/29 10:04:13;;;;;;;;;0.00;0.00;;;;;-146.67;24.28;73022.81;5061878;28;61840;-77
2022/06/29 10:06:39;;;;;;;;;0.00;0.00;;;;;-146.67;24.27;73006.84;5061803;28;61813;-77
2022/06/29 10:09:05;;;;;;;;;0.00;0.00;;;;;-146.67;24.21;72994.88;5059871;28;62615;-76
2022/06/29 10:15:26;;;;;;;;;0.00;0.00;;;;;-146.67;24.13;72968.94;5060217;28;62573;-77
2022/06/29 10:18:15;;;;;;;;;0.00;0.00;;;;;-146.67;23.78;72958.94;5060670;28;61924;-77
2022/06/29 10:20:49;;;;;;;;;0.00;0.00;;;;;-146.67;23.76;72927.00;5057995;28;62103;-78
2022/06/29 10:23:49;;;;;;;;;0.00;0.00;;;;;-146.67;24.06;72889.09;5060561;28;62013;-77
2022/06/29 10:26:36;;;;;;;;;0.00;0.00;;;;;-146.67;23.52;72875.13;5059646;28;62489;-79
2022/06/29 10:29:11;;;;;;;;;0.00;0.00;;;;;-146.67;23.21;72861.16;5061187;28;61733;-82
2022/06/29 10:31:51;;;;;;;;;0.00;0.00;;;;;-146.67;24.00;72849.19;5061894;28;61924;-75
2022/06/29 10:34:37;;;;;;;;;0.00;0.00;;;;;-146.67;23.39;72839.22;5061499;28;62005;-76
2022/06/29 10:37:05;;;;;;;;;0.00;0.00;;;;;-146.67;23.24;72815.25;5060252;28;64208;-76
2022/06/29 10:39:45;;;;;;;;;0.00;0.00;;;;;-146.67;22.87;72805.28;5061818;28;61952;-75
2022/06/29 10:45:17;;;;;;;;;0.00;0.00;;;;;-146.67;22.61;72805.28;5060240;28;61920;-79
2022/06/29 10:48:08;;;;;;;;;0.00;0.00;;;;;-146.67;22.74;72811.28;5059401;28;64055;-80
2022/06/29 10:50:38;;;;;;;;;0.00;0.00;;;;;-146.67;22.99;72827.22;5062097;28;61785;-79
2022/06/29 10:53:12;;;;;;;;;0.00;0.00;;;;;-146.67;22.86;72817.25;5058480;28;62076;-78
2022/06/29 10:55:54;;;;;;;;;0.00;0.00;;;;;-146.67;22.63;72805.28;5056661;28;62131;-79
2022/06/29 10:58:21;;;;;;;;;0.00;0.00;;;;;-146.67;22.77;72797.31;5063912;28;62612;-79
2022/06/29 11:00:51;;;;;;;;;0.00;0.00;;;;;-146.67;22.72;72797.31;5060824;28;62201;-79
2022/06/29 11:03:18;;;;;;;;;0.00;0.00;;;;;-146.67;22.68;72779.34;5060533;28;62186;-79
2022/06/29 11:14:03;;;;;;;;;0.00;0.00;;;;;-146.67;22.40;72745.41;5074185;28;61831;-78
2022/06/29 11:16:33;;;;;;;;;0.00;0.00;;;;;-146.67;22.51;72731.44;5076790;27;61783;-79
2022/06/29 11:18:59;;;;;;;;;0.00;0.00;;;;;-146.67;22.89;72733.44;5071692;27;62965;-78
2022/06/29 11:21:28;;;;;;;;;0.00;0.00;;;;;-146.67;22.62;72703.50;5064427;28;62031;-78
2022/06/29 11:24:03;;;;;;;;;0.00;0.00;;;;;-146.67;22.25;72697.53;5066528;28;62025;-79
2022/06/29 11:26:33;;;;;;;;;0.00;0.00;;;;;-146.67;22.46;72689.53;5060466;28;61788;-79
2022/06/29 11:29:00;;;;;;;;;0.00;0.00;;;;;-146.67;22.37;72681.56;5060931;28;61938;-78
2022/06/29 11:31:26;;;;;;;;;0.00;0.00;;;;;-146.67;22.22;72683.56;5060595;28;62226;-84
2022/06/29 11:33:53;;;;;;;;;0.00;0.00;;;;;-146.67;22.38;72673.56;5062123;28;61972;-80
2022/06/29 11:36:26;;;;;;;;;0.00;0.00;;;;;-146.67;22.08;72649.63;5062220;28;61867;-80
2022/06/29 11:38:57;;;;;;;;;0.00;0.00;;;;;-146.67;21.85;72625.69;5061138;28;63000;-79
2022/06/29 11:43:03;;;;;;;;;0.00;0.00;;;;;-146.67;22.06;72631.66;5061333;28;61754;-78
2022/06/29 11:44:30;;;;;;;;;0.00;0.00;;;;;-146.67;21.87;72639.66;5061092;28;61796;-77